WetterOnline ( https://www.wetteronline.de )

Wetter aktuell Wernigerode

Aktuelles Wetter: Wernigerode (240m)

6-stündlich | Neueste Meldungen
Ortszeit Temperatur Wetter
Fr, 24.05. 14:00 21.9° C wolkig
Fr, 24.05. 8:00 16.3° C leicht bewölkt
Fr, 24.05. 2:00 10.8° C wolkenlos
Do, 23.05. 20:00 16.0° C leichter Regen
Do, 23.05. 14:00 20.3° C wolkig
Do, 23.05. 8:00 15.6° C wolkenlos
Do, 23.05. 2:00 14.5° C bedeckt
Mi, 22.05. 20:00 15.4° C bewölkt
Ortszeit Temperatur Wetter
Fr, 24.05. 15:00 18.8° C bewölkt
Fr, 24.05. 14:50 18.8° C bewölkt
Fr, 24.05. 14:40 19.3° C bedeckt
Fr, 24.05. 14:30 18.2° C leichter Regen
Fr, 24.05. 14:20 18.2° C leichter Regen
Fr, 24.05. 14:10 20.8° C bewölkt
Fr, 24.05. 14:00 21.9° C wolkig
Fr, 24.05. 13:30 21.8° C bedeckt
Fr, 24.05. 13:00 21.5° C wolkig
Fr, 24.05. 12:30 20.7° C wolkig
Fr, 24.05. 12:00 20.6° C bedeckt
Ortszeit Relative Feuchte Sichtweite
Fr, 24.05. 14:00 50% >70 km
Fr, 24.05. 8:00 73% 28 km
Fr, 24.05. 2:00 97% 10 km
Do, 23.05. 20:00 85% 17 km
Do, 23.05. 14:00 48% 50 km
Do, 23.05. 8:00 69% 30 km
Do, 23.05. 2:00 76% 45 km
Mi, 22.05. 20:00 81% 23 km
Ortszeit Relative Feuchte Sichtweite
Fr, 24.05. 15:00 69% 30 km
Fr, 24.05. 14:50 69% -
Fr, 24.05. 14:40 73% -
Fr, 24.05. 14:30 72% 26 km
Fr, 24.05. 14:20 72% -
Fr, 24.05. 14:10 60% -
Fr, 24.05. 14:00 50% >70 km
Fr, 24.05. 13:30 52% 45 km
Fr, 24.05. 13:00 55% 27 km
Fr, 24.05. 12:30 58% 28 km
Fr, 24.05. 12:00 61% 22 km
Ortszeit Niederschlagsmenge Niederschlagsart
Fr, 24.05. 14:00 0.0 l/m2 in 6 Std. -
Fr, 24.05. 8:00 1 l/m2 in 12 Std. -
Fr, 24.05. 2:00 1 l/m2 in 6 Std. Regen
Do, 23.05. 20:00 0.6 l/m2 in 12 Std. Regen
Do, 23.05. 14:00 0.0 l/m2 in 6 Std. -
Do, 23.05. 8:00 0.0 l/m2 in 12 Std. -
Do, 23.05. 2:00 0.0 l/m2 in 6 Std. -
Mi, 22.05. 20:00 4 l/m2 in 12 Std. Regen
Ortszeit Niederschlagsmenge Niederschlagsart
Fr, 24.05. 15:00 1.4 l/m2 in 1 Std. Regen
Fr, 24.05. 14:50 keine Meldung -
Fr, 24.05. 14:40 keine Meldung -
Fr, 24.05. 14:30 1.4 l/m2 in 30 Min -
Fr, 24.05. 14:20 keine Meldung -
Fr, 24.05. 14:10 keine Meldung -
Fr, 24.05. 14:00 0.0 l/m2 in 1 Std. -
Fr, 24.05. 13:30 0.0 l/m2 in 30 Min -
Fr, 24.05. 13:00 0.0 l/m2 in 1 Std. -
Fr, 24.05. 12:30 0.0 l/m2 in 30 Min -
Fr, 24.05. 12:00 0.0 l/m2 in 1 Std. -
Ortszeit Stärke Spitze Richtung
km/h Bft. km/h Grad Sektor
Fr, 24.05. 14:00 11 2 29 90° O
Fr, 24.05. 8:00 0 0 7 - -
Fr, 24.05. 2:00 4 1 14 160° S
Do, 23.05. 20:00 6 1 30 200° S
Do, 23.05. 14:00 9 2 30 290° W
Do, 23.05. 8:00 9 2 26 280° W
Do, 23.05. 2:00 11 2 25 250° W
Mi, 22.05. 20:00 9 2 24 310° NW
Ortszeit Stärke Spitze Richtung
km/h Bft. km/h Grad Sektor
Fr, 24.05. 15:00 11 2 32 50° NO
Fr, 24.05. 14:50 11 2 - 50° NO
Fr, 24.05. 14:40 7 2 - 20° N
Fr, 24.05. 14:30 14 3 32 50° NO
Fr, 24.05. 14:20 14 3 - 50° NO
Fr, 24.05. 14:10 11 2 - 60° NO
Fr, 24.05. 14:00 11 2 29 90° O
Fr, 24.05. 13:30 18 3 29 80° O
Fr, 24.05. 13:00 11 2 25 90° O
Fr, 24.05. 12:30 13 3 24 70° O
Fr, 24.05. 12:00 13 3 20 60° NO
Ortszeit Untergrenze Bedeckung Gattung
total tief tief mittel hoch
Fr, 24.05. 14:00 1350 m 7/8 3/8 - - -
Fr, 24.05. 8:00 9000 m 6/8 0/8 - - -
Fr, 24.05. 2:00 - 0/8 0/8 - - -
Do, 23.05. 20:00 1800 m 7/8 7/8 - - -
Do, 23.05. 14:00 1500 m 5/8 5/8 - - -
Do, 23.05. 8:00 - 0/8 0/8 - - -
Do, 23.05. 2:00 4200 m 8/8 8/8 - - -
Mi, 22.05. 20:00 2700 m 8/8 7/8 - - -
Ortszeit Bedeckungsgrad in Achtel und Wolkenuntergrenze
Fr, 24.05. 15:00 3(1290m) 7(1800m) 8(5400m)
Fr, 24.05. 14:50 3(1290m) 7(1800m) 8(5400m)
Fr, 24.05. 14:40 8
Fr, 24.05. 14:30 1(540m) 7(1290m) 7(1800m)
Fr, 24.05. 14:20 1(540m) 7(1290m) 7(1800m)
Fr, 24.05. 14:10 7
Fr, 24.05. 14:00 2(1350m) 3(2700m) 7(5700m)
Fr, 24.05. 13:30 8(5400m) 8(6900m)
Fr, 24.05. 13:00 3(1080m) 8(6000m)
Fr, 24.05. 12:30 1(1170m) 7(6000m) 7(6600m)
Fr, 24.05. 12:00 8(5700m) 8(7500m)
Ortszeit Luftdruck NN (hPa) Tendenz (hPa in 3 Std.)
Fr, 24.05. 14:00 1017 - 1,2
Fr, 24.05. 8:00 1019 0,0
Fr, 24.05. 2:00 1018 + 0,3
Do, 23.05. 20:00 1016 + 1,0
Do, 23.05. 14:00 1014 - 0,1
Do, 23.05. 8:00 1014 + 1,6
Do, 23.05. 2:00 1012 + 0,2
Mi, 22.05. 20:00 1010 + 1,0
Ortszeit Luftdruck NN (hPa) Tendenz (hPa in 3 Std.)
Fr, 24.05. 15:00 1017 - 1,1
Fr, 24.05. 14:50 1017 keine Meldung
Fr, 24.05. 14:40 1017 keine Meldung
Fr, 24.05. 14:30 1017 - 1,3
Fr, 24.05. 14:20 1017 keine Meldung
Fr, 24.05. 14:10 1017 keine Meldung
Fr, 24.05. 14:00 1017 - 1,2
Fr, 24.05. 13:30 1017 - 1,0
Fr, 24.05. 13:00 1017 - 0,7
Fr, 24.05. 12:30 1018 - 0,5
Fr, 24.05. 12:00 1018 - 0,3
Ortszeit Schneehöhe (cm)
Fr, 24.05. 14:00 0
Fr, 24.05. 8:00 0
Fr, 24.05. 2:00 0
Do, 23.05. 20:00 0
Do, 23.05. 14:00 0
Do, 23.05. 8:00 0
Do, 23.05. 2:00 0
Mi, 22.05. 20:00 0
Ortszeit Schneehöhe (cm)
Fr, 24.05. 15:00 0
Fr, 24.05. 14:50 0
Fr, 24.05. 14:40 -
Fr, 24.05. 14:30 0
Fr, 24.05. 14:20 0
Fr, 24.05. 14:10 -
Fr, 24.05. 14:00 0
Fr, 24.05. 13:30 0
Fr, 24.05. 13:00 0
Fr, 24.05. 12:30 0
Fr, 24.05. 12:00 0
Link zu dieser Seite / Seite empfehlen

Das Wetter in ...